Time;durP1;ratioP1;P1;durP2;ratioP2;P2;SDS_P1;SDS_P2;PMS_P1;PMS_P2;Temp;Humidity;BMP_temperature;BMP_pressure;BME280_temperature;BME280_humidity;BME280_pressure;Samples;Min_cycle;Max_cycle;Signal;HPM_P1;HPM_P2
2024/02/05 00:01:24;;;;;;;36.85;23.17;;;16.70;67.10;;;;;;4997823;28;20081;-83
2024/02/05 00:03:50;;;;;;;35.60;23.05;;;16.70;67.10;;;;;;5014259;28;20072;-82
2024/02/05 00:06:15;;;;;;;35.20;22.67;;;16.60;67.10;;;;;;4999302;28;20534;-83
2024/02/05 00:08:41;;;;;;;33.08;22.63;;;16.60;68.00;;;;;;4999755;28;20129;-82
2024/02/05 00:11:06;;;;;;;37.30;23.23;;;16.60;67.30;;;;;;4985096;28;20224;-81
2024/02/05 00:13:33;;;;;;;37.25;24.70;;;16.60;67.30;;;;;;5013779;28;20042;-82
2024/02/05 00:15:58;;;;;;;38.72;23.58;;;16.60;67.40;;;;;;4986058;28;20046;-81
2024/02/05 00:18:27;;;;;;;34.03;22.85;;;16.50;67.50;;;;;;5004778;28;20031;-81
2024/02/05 00:20:53;;;;;;;36.53;23.88;;;16.50;67.80;;;;;;5002064;28;20535;-81
2024/02/05 00:23:18;;;;;;;35.42;22.83;;;16.50;67.70;;;;;;5018148;28;20061;-81
2024/02/05 00:25:44;;;;;;;36.80;21.77;;;16.40;67.70;;;;;;5008199;28;20389;-81
2024/02/05 00:28:12;;;;;;;36.97;23.65;;;16.40;67.90;;;;;;5002205;28;20056;-80
2024/02/05 00:30:38;;;;;;;31.80;21.50;;;16.40;68.00;;;;;;5019451;28;20033;-81
2024/02/05 00:33:05;;;;;;;36.40;23.00;;;16.40;68.00;;;;;;5018834;28;20038;-81
2024/02/05 00:35:31;;;;;;;35.33;21.20;;;16.30;68.00;;;;;;5019708;28;20546;-80
2024/02/05 00:37:57;;;;;;;35.65;22.60;;;16.30;68.10;;;;;;5004138;28;20045;-79
2024/02/05 00:40:22;;;;;;;33.00;21.70;;;16.30;68.20;;;;;;5019412;28;20048;-82
2024/02/05 00:42:48;;;;;;;31.77;20.15;;;16.30;68.20;;;;;;5018863;28;20045;-82
2024/02/05 00:45:13;;;;;;;30.75;19.88;;;16.30;68.20;;;;;;5016910;28;20089;-82
2024/02/05 00:47:39;;;;;;;32.90;19.98;;;16.30;68.30;;;;;;5020690;28;21563;-82
2024/02/05 00:50:05;;;;;;;33.22;21.15;;;16.20;68.30;;;;;;4977154;28;20048;-82
2024/02/05 00:52:31;;;;;;;30.63;20.20;;;16.20;68.40;;;;;;5000812;28;20077;-82
2024/02/05 00:54:57;;;;;;;29.02;19.60;;;16.20;68.40;;;;;;5005605;28;20042;-83
2024/02/05 00:57:26;;;;;;;30.23;20.35;;;16.20;68.50;;;;;;5003314;28;20045;-82
2024/02/05 00:59:54;;;;;;;31.45;19.45;;;16.10;68.40;;;;;;4988721;28;20041;-82
2024/02/05 01:02:20;;;;;;;25.90;18.42;;;16.10;68.50;;;;;;4979112;28;20042;-83
2024/02/05 01:04:46;;;;;;;25.35;18.35;;;16.10;68.60;;;;;;5021358;28;20073;-83
2024/02/05 01:07:12;;;;;;;24.63;17.52;;;16.10;68.70;;;;;;4987017;28;20603;-82
2024/02/05 01:09:37;;;;;;;25.83;18.75;;;16.10;68.70;;;;;;4986004;28;20145;-81
2024/02/05 01:12:03;;;;;;;26.92;18.38;;;16.10;68.80;;;;;;5003026;28;20041;-82
2024/02/05 01:14:29;;;;;;;26.00;18.23;;;16.10;68.80;;;;;;5015808;28;20050;-81
2024/02/05 01:16:55;;;;;;;25.70;17.38;;;16.00;68.70;;;;;;5001755;28;20038;-81
2024/02/05 01:19:22;;;;;;;24.48;17.17;;;16.00;69.60;;;;;;5005547;28;20571;-83
2024/02/05 01:21:47;;;;;;;25.13;17.55;;;16.00;68.80;;;;;;5005945;28;20097;-83
2024/02/05 01:24:13;;;;;;;25.92;16.90;;;16.00;68.80;;;;;;4994628;28;20459;-83
2024/02/05 01:26:38;;;;;;;24.73;16.05;;;16.00;68.90;;;;;;5003892;28;20041;-83
2024/02/05 01:29:06;;;;;;;25.67;16.67;;;16.00;69.00;;;;;;5005835;28;20124;-83
2024/02/05 01:31:32;;;;;;;24.17;16.98;;;16.00;69.00;;;;;;5004803;28;20062;-82
2024/02/05 01:33:59;;;;;;;24.15;17.05;;;15.90;69.70;;;;;;5004581;28;20033;-82
2024/02/05 01:36:24;;;;;;;24.83;16.02;;;15.90;68.90;;;;;;5018933;28;20046;-83
2024/02/05 01:38:50;;;;;;;25.17;17.17;;;15.90;69.00;;;;;;5006811;28;20427;-84
2024/02/05 01:41:16;;;;;;;22.75;16.23;;;15.90;69.10;;;;;;5005186;28;20046;-83
2024/02/05 01:43:42;;;;;;;21.98;16.02;;;15.90;69.10;;;;;;5006565;28;20389;-83
2024/02/05 01:46:10;;;;;;;21.63;15.70;;;15.90;69.20;;;;;;5005972;28;20038;-82
2024/02/05 01:48:35;;;;;;;28.10;17.27;;;15.90;69.20;;;;;;5016959;28;20077;-83
2024/02/05 01:51:01;;;;;;;21.95;15.32;;;15.80;69.10;;;;;;5000417;28;20070;-81
2024/02/05 01:53:27;;;;;;;21.60;15.25;;;15.80;69.10;;;;;;5018280;28;20046;-83
2024/02/05 01:55:52;;;;;;;21.70;14.23;;;15.80;69.20;;;;;;5005781;28;20527;-83
2024/02/05 01:58:19;;;;;;;24.80;14.35;;;15.80;69.20;;;;;;5006219;28;20053;-83
2024/02/05 02:00:45;;;;;;;19.70;14.48;;;15.80;69.30;;;;;;5018960;28;20047;-83
2024/02/05 02:03:11;;;;;;;19.92;13.38;;;15.80;69.30;;;;;;5016477;28;20113;-83
2024/02/05 02:05:37;;;;;;;22.00;15.10;;;15.80;69.30;;;;;;5005387;28;20037;-83
2024/02/05 02:08:04;;;;;;;21.25;14.05;;;15.80;69.30;;;;;;5016967;28;20030;-82
2024/02/05 02:10:31;;;;;;;16.23;12.93;;;15.80;69.40;;;;;;4996134;28;20053;-83
2024/02/05 02:12:56;;;;;;;20.77;13.18;;;15.80;69.40;;;;;;5014458;28;20041;-83
2024/02/05 02:15:22;;;;;;;17.65;12.25;;;15.80;69.40;;;;;;5015914;28;20058;-82
2024/02/05 02:17:47;;;;;;;18.42;13.32;;;15.70;69.30;;;;;;5014662;28;20121;-82
2024/02/05 02:20:13;;;;;;;22.15;12.68;;;15.70;69.40;;;;;;5001441;28;20046;-82
2024/02/05 02:22:49;;;;;;;16.63;12.15;;;15.70;69.40;;;;;;5018462;28;20467;-83
2024/02/05 02:25:15;;;;;;;17.70;12.15;;;15.70;69.40;;;;;;5002948;28;20054;-81
2024/02/05 02:27:41;;;;;;;16.42;12.02;;;15.70;69.50;;;;;;5019648;28;20487;-82
2024/02/05 02:30:08;;;;;;;17.30;12.13;;;15.70;69.40;;;;;;5003643;28;20049;-82
2024/02/05 02:32:47;;;;;;;17.77;11.63;;;15.70;69.50;;;;;;5016125;28;20048;-83
2024/02/05 02:35:32;;;;;;;15.77;11.68;;;15.70;69.50;;;;;;5017529;28;20061;-83
2024/02/05 02:38:05;;;;;;;17.15;11.63;;;15.70;69.40;;;;;;5005701;28;20037;-85
2024/02/05 02:40:31;;;;;;;17.48;12.10;;;15.70;69.00;;;;;;5017554;28;20046;-84
2024/02/05 02:43:02;;;;;;;17.55;12.13;;;15.70;69.00;;;;;;5018154;28;20049;-83
2024/02/05 02:45:28;;;;;;;15.48;10.07;;;15.70;69.10;;;;;;5011155;28;20054;-84
2024/02/05 02:47:54;;;;;;;15.10;10.80;;;15.60;69.50;;;;;;5019699;28;20045;-85
2024/02/05 02:50:19;;;;;;;15.85;10.95;;;15.60;69.40;;;;;;4999857;28;20584;-86
2024/02/05 02:52:45;;;;;;;14.68;11.30;;;15.60;68.90;;;;;;5005107;28;20048;-82
2024/02/05 02:55:10;;;;;;;14.45;10.65;;;15.60;68.90;;;;;;5001820;28;20053;-83
2024/02/05 02:57:36;;;;;;;15.88;10.93;;;15.60;69.00;;;;;;4999755;28;20072;-83
2024/02/05 03:00:03;;;;;;;15.70;11.18;;;15.70;69.10;;;;;;5003685;28;20049;-83
2024/02/05 03:02:30;;;;;;;14.90;10.80;;;15.60;69.00;;;;;;4976616;28;20458;-82
2024/02/05 03:04:58;;;;;;;16.85;10.70;;;15.60;69.00;;;;;;4998775;28;20065;-82
2024/02/05 03:07:24;;;;;;;18.33;11.13;;;15.60;68.90;;;;;;5004851;28;20046;-83
2024/02/05 03:09:49;;;;;;;15.35;10.85;;;15.60;69.00;;;;;;5004403;28;20042;-82
2024/02/05 03:12:15;;;;;;;17.67;12.15;;;15.60;69.00;;;;;;5002956;28;20205;-82
2024/02/05 03:14:40;;;;;;;15.23;11.05;;;15.60;69.10;;;;;;5018259;28;20053;-82
2024/02/05 03:17:06;;;;;;;13.05;9.30;;;15.60;69.00;;;;;;4998415;28;20189;-82
2024/02/05 03:19:33;;;;;;;12.80;9.75;;;15.60;69.00;;;;;;5017378;28;20124;-82
2024/02/05 03:21:59;;;;;;;12.90;9.68;;;15.60;69.10;;;;;;4998779;28;20042;-83
2024/02/05 03:24:24;;;;;;;12.45;9.88;;;15.60;69.10;;;;;;5013454;28;20539;-84
2024/02/05 03:26:50;;;;;;;11.25;8.80;;;15.50;69.10;;;;;;5019202;28;20546;-83
2024/02/05 03:29:16;;;;;;;14.00;9.48;;;15.60;69.20;;;;;;5004596;28;20056;-83
2024/02/05 03:31:42;;;;;;;11.55;8.48;;;15.50;69.00;;;;;;5003723;28;20042;-83
2024/02/05 03:34:07;;;;;;;10.32;8.48;;;15.50;69.10;;;;;;5002361;28;20041;-83
2024/02/05 03:36:33;;;;;;;10.25;9.07;;;15.50;69.10;;;;;;5002547;28;20200;-81
2024/02/05 03:38:59;;;;;;;11.27;8.38;;;15.50;69.20;;;;;;5000475;28;20124;-82
2024/02/05 03:41:25;;;;;;;9.90;8.48;;;15.50;69.20;;;;;;5002532;28;20050;-82
2024/02/05 03:43:50;;;;;;;9.90;8.40;;;15.50;69.10;;;;;;4997617;28;20037;-82
2024/02/05 03:46:16;;;;;;;11.48;8.63;;;15.50;69.30;;;;;;4988675;28;20038;-82
2024/02/05 03:48:54;;;;;;;9.52;8.02;;;15.50;69.30;;;;;;5002967;28;20056;-82
2024/02/05 03:51:20;;;;;;;12.13;7.82;;;15.50;69.30;;;;;;5016086;28;20049;-82
2024/02/05 03:53:46;;;;;;;10.43;8.50;;;15.50;69.30;;;;;;5005160;28;20044;-81
2024/02/05 03:56:12;;;;;;;12.25;8.25;;;15.50;69.30;;;;;;5011995;28;20050;-84
2024/02/05 03:58:38;;;;;;;9.30;7.80;;;15.50;69.30;;;;;;5004758;28;20177;-84
2024/02/05 04:01:05;;;;;;;8.10;6.78;;;15.50;69.40;;;;;;5000915;28;20042;-84
2024/02/05 04:03:30;;;;;;;9.85;7.78;;;15.50;69.30;;;;;;5003921;28;20046;-84
2024/02/05 04:05:57;;;;;;;9.52;7.85;;;15.50;69.40;;;;;;5001449;28;20042;-84
2024/02/05 04:08:24;;;;;;;8.32;7.20;;;15.50;69.30;;;;;;4999340;28;20038;-84
2024/02/05 04:10:53;;;;;;;11.50;8.10;;;15.40;69.40;;;;;;5001285;28;20563;-84
2024/02/05 04:13:19;;;;;;;11.02;7.38;;;15.50;69.30;;;;;;5009924;28;20085;-83
2024/02/05 04:15:44;;;;;;;8.43;7.07;;;15.40;69.30;;;;;;5003624;28;20390;-83
2024/02/05 04:18:10;;;;;;;9.35;6.90;;;15.40;69.30;;;;;;5014812;28;20052;-82
2024/02/05 04:20:36;;;;;;;10.65;7.47;;;15.40;69.30;;;;;;5016119;28;20053;-83
2024/02/05 04:23:01;;;;;;;8.93;6.55;;;15.40;69.30;;;;;;5001562;28;20046;-83
2024/02/05 04:25:28;;;;;;;8.65;7.32;;;15.40;69.30;;;;;;5017498;28;20029;-81
2024/02/05 04:27:54;;;;;;;7.80;7.00;;;15.40;69.50;;;;;;4998615;28;20045;-82
2024/02/05 04:30:28;;;;;;;7.15;6.40;;;15.40;69.30;;;;;;5021632;28;20393;-81
2024/02/05 04:32:55;;;;;;;7.28;6.57;;;15.40;69.30;;;;;;4985280;28;20053;-81
2024/02/05 04:35:20;;;;;;;8.25;6.25;;;15.40;69.40;;;;;;5014636;28;20050;-81
2024/02/05 04:37:46;;;;;;;6.82;6.15;;;15.40;69.30;;;;;;4998473;28;20769;-81
2024/02/05 04:40:12;;;;;;;7.25;6.38;;;15.40;69.40;;;;;;5002824;28;20046;-81
2024/02/05 04:42:39;;;;;;;7.05;5.60;;;15.40;69.40;;;;;;5016489;28;20042;-81
2024/02/05 04:45:05;;;;;;;7.50;6.18;;;15.40;69.50;;;;;;5003032;28;20038;-82
2024/02/05 04:47:30;;;;;;;9.23;6.00;;;15.40;69.40;;;;;;4985931;28;20078;-81
2024/02/05 04:49:56;;;;;;;9.73;6.28;;;15.40;69.50;;;;;;5017799;28;20065;-81
2024/02/05 04:52:22;;;;;;;6.32;5.68;;;15.40;69.40;;;;;;4984006;28;20042;-82
2024/02/05 04:54:47;;;;;;;8.85;6.03;;;15.40;69.30;;;;;;5000508;28;20578;-81
2024/02/05 04:57:13;;;;;;;7.07;6.10;;;15.40;69.40;;;;;;5012566;28;20447;-82
2024/02/05 04:59:38;;;;;;;7.82;6.18;;;15.40;69.60;;;;;;5018315;28;20427;-83
2024/02/05 05:02:04;;;;;;;7.28;5.82;;;15.40;69.50;;;;;;5021378;28;20050;-83
2024/02/05 05:04:29;;;;;;;6.47;5.60;;;15.40;69.60;;;;;;5002670;28;20050;-83
2024/02/05 05:06:55;;;;;;;7.20;6.00;;;15.40;69.60;;;;;;5003438;28;20052;-82
2024/02/05 05:09:21;;;;;;;7.65;5.93;;;15.30;69.60;;;;;;5020311;28;20069;-83
2024/02/05 05:11:47;;;;;;;6.32;5.60;;;15.30;69.60;;;;;;5020602;28;20058;-83
2024/02/05 05:14:13;;;;;;;6.40;5.40;;;15.30;69.50;;;;;;5016591;28;20529;-83
2024/02/05 05:16:39;;;;;;;6.07;5.50;;;15.30;69.60;;;;;;5006507;28;20128;-83
2024/02/05 05:19:04;;;;;;;6.55;5.43;;;15.30;69.60;;;;;;5006139;28;20467;-83
2024/02/05 05:21:30;;;;;;;7.32;5.82;;;15.30;69.60;;;;;;5006945;28;20412;-83
2024/02/05 05:23:55;;;;;;;5.78;5.13;;;15.30;69.90;;;;;;5006465;28;20038;-83
2024/02/05 05:26:24;;;;;;;7.85;5.68;;;15.30;69.60;;;;;;4986002;28;20042;-83
2024/02/05 05:28:51;;;;;;;6.82;5.60;;;15.30;69.60;;;;;;5000520;28;20042;-82
2024/02/05 05:31:16;;;;;;;8.85;5.68;;;15.30;69.50;;;;;;5001810;28;20046;-82
2024/02/05 05:33:46;;;;;;;6.70;5.38;;;15.30;69.60;;;;;;5020260;28;20049;-82
2024/02/05 05:36:11;;;;;;;5.80;5.30;;;15.30;69.70;;;;;;5019077;28;20100;-82
2024/02/05 05:38:37;;;;;;;5.80;5.30;;;15.30;69.70;;;;;;5018566;28;20037;-83
2024/02/05 05:41:03;;;;;;;5.75;4.95;;;15.20;69.60;;;;;;5002237;28;20046;-83
2024/02/05 05:43:29;;;;;;;6.30;5.07;;;15.30;69.70;;;;;;4997973;28;20648;-82
2024/02/05 05:45:55;;;;;;;5.32;4.78;;;15.30;69.70;;;;;;5000793;28;20065;-82
2024/02/05 05:48:21;;;;;;;5.28;4.78;;;15.30;69.70;;;;;;5004078;28;20046;-82
2024/02/05 05:50:47;;;;;;;5.30;4.80;;;15.30;70.60;;;;;;5001913;28;20060;-83
2024/02/05 05:53:13;;;;;;;5.95;4.88;;;15.20;70.20;;;;;;5002155;28;20077;-83
2024/02/05 05:55:38;;;;;;;6.43;5.50;;;15.30;69.90;;;;;;5002241;28;20122;-83
2024/02/05 05:58:04;;;;;;;5.35;4.78;;;15.30;69.70;;;;;;5003478;28;20041;-83
2024/02/05 06:00:29;;;;;;;5.00;4.60;;;15.30;69.80;;;;;;4996745;28;20096;-83
2024/02/05 06:02:56;;;;;;;5.75;4.50;;;15.30;69.90;;;;;;5005822;28;20046;-81
2024/02/05 06:05:22;;;;;;;4.85;4.35;;;15.20;69.70;;;;;;5004509;28;20089;-82
2024/02/05 06:07:47;;;;;;;4.63;4.22;;;15.20;69.80;;;;;;5004343;28;20038;-84
2024/02/05 06:10:13;;;;;;;4.70;4.30;;;15.20;69.80;;;;;;5003966;28;20120;-81
2024/02/05 06:12:40;;;;;;;5.05;4.60;;;15.30;69.80;;;;;;5003218;28;20393;-81
2024/02/05 06:15:07;;;;;;;4.78;4.38;;;15.20;70.20;;;;;;5018935;28;20676;-81
2024/02/05 06:17:33;;;;;;;6.47;4.57;;;15.30;69.90;;;;;;5003439;28;20688;-82
2024/02/05 06:19:58;;;;;;;4.95;4.03;;;15.30;69.80;;;;;;5010895;28;20046;-83
2024/02/05 06:22:24;;;;;;;4.75;4.35;;;15.30;69.60;;;;;;4999230;28;20057;-81
2024/02/05 06:24:49;;;;;;;5.38;4.72;;;15.30;70.70;;;;;;4994260;28;20117;-82
2024/02/05 06:27:15;;;;;;;5.63;4.70;;;15.30;70.00;;;;;;4994387;28;20078;-81
2024/02/05 06:29:40;;;;;;;4.68;4.15;;;15.20;70.00;;;;;;5012433;28;20754;-83
2024/02/05 06:32:07;;;;;;;8.18;4.60;;;15.20;70.10;;;;;;5004925;28;20433;-84
2024/02/05 06:34:33;;;;;;;4.70;4.22;;;15.20;70.10;;;;;;5005616;28;20034;-83
2024/02/05 06:36:59;;;;;;;4.15;3.72;;;15.20;70.20;;;;;;5018541;28;20057;-82
2024/02/05 06:39:24;;;;;;;4.63;4.22;;;15.20;70.20;;;;;;5000684;28;20061;-80
2024/02/05 06:41:51;;;;;;;4.68;4.28;;;15.20;70.30;;;;;;5018532;28;20420;-80
2024/02/05 06:44:17;;;;;;;4.45;4.03;;;15.20;70.30;;;;;;4999043;28;20109;-81
2024/02/05 06:46:42;;;;;;;4.70;4.35;;;15.20;70.50;;;;;;5001351;28;20137;-81
2024/02/05 06:49:08;;;;;;;4.72;4.32;;;15.20;70.30;;;;;;5000017;28;20168;-81
2024/02/05 06:51:34;;;;;;;5.28;3.72;;;15.20;70.40;;;;;;5016901;28;20058;-81
2024/02/05 06:53:59;;;;;;;4.15;3.75;;;15.20;70.20;;;;;;5018222;28;20049;-81
2024/02/05 06:56:25;;;;;;;5.00;4.25;;;15.20;70.40;;;;;;5001872;28;20074;-79
2024/02/05 06:58:50;;;;;;;4.25;3.80;;;15.20;70.50;;;;;;4985226;28;20046;-81
2024/02/05 07:01:16;;;;;;;4.22;3.85;;;15.20;70.50;;;;;;4975220;28;20053;-80
2024/02/05 07:03:42;;;;;;;4.07;3.67;;;15.20;70.50;;;;;;5017798;28;20042;-80
2024/02/05 07:06:07;;;;;;;4.40;4.00;;;15.20;70.50;;;;;;5004364;28;20551;-80
2024/02/05 07:08:33;;;;;;;5.13;4.47;;;15.20;70.50;;;;;;5003594;28;20037;-81
2024/02/05 07:10:58;;;;;;;4.30;3.90;;;15.20;70.50;;;;;;5019516;28;20048;-81
2024/02/05 07:13:24;;;;;;;6.38;4.50;;;15.20;70.60;;;;;;4998882;28;20038;-78
2024/02/05 07:15:50;;;;;;;5.50;3.83;;;15.20;70.50;;;;;;4999286;28;20035;-78
2024/02/05 07:18:15;;;;;;;3.65;3.35;;;15.20;70.80;;;;;;4999127;28;20034;-78
2024/02/05 07:20:41;;;;;;;5.07;3.75;;;15.20;70.70;;;;;;5002501;28;20042;-80
2024/02/05 07:23:07;;;;;;;3.90;3.30;;;15.20;70.80;;;;;;5012399;28;20050;-79
2024/02/05 07:25:38;;;;;;;4.03;3.58;;;15.20;70.70;;;;;;4985539;28;20157;-79
2024/02/05 07:28:04;;;;;;;4.50;3.63;;;15.30;70.90;;;;;;5010925;28;20038;-79
2024/02/05 07:30:32;;;;;;;4.85;3.53;;;15.30;70.90;;;;;;5016031;28;20492;-79
2024/02/05 07:32:57;;;;;;;4.70;3.30;;;15.30;70.90;;;;;;5001915;28;20096;-78
2024/02/05 07:35:23;;;;;;;3.35;3.05;;;15.30;70.90;;;;;;4999193;28;20050;-78
2024/02/05 07:37:49;;;;;;;6.47;3.60;;;15.30;71.20;;;;;;5000584;28;20101;-78
2024/02/05 07:40:15;;;;;;;3.92;3.35;;;15.30;70.90;;;;;;5001767;28;20076;-79
2024/02/05 07:42:40;;;;;;;3.45;3.15;;;15.30;70.90;;;;;;5000827;28;20061;-80
2024/02/05 07:45:07;;;;;;;3.78;3.30;;;15.20;70.80;;;;;;5003529;28;20417;-79
2024/02/05 07:47:33;;;;;;;4.70;3.63;;;15.20;70.80;;;;;;4999127;28;20905;-79
2024/02/05 07:49:59;;;;;;;3.70;3.40;;;15.30;70.90;;;;;;4995748;28;20507;-78
2024/02/05 07:52:25;;;;;;;3.97;2.95;;;15.20;70.90;;;;;;5016722;28;20041;-78
2024/02/05 07:54:51;;;;;;;3.83;3.20;;;15.20;70.80;;;;;;4994473;28;20050;-79
2024/02/05 07:57:18;;;;;;;6.65;3.08;;;15.20;70.80;;;;;;4982067;28;20101;-78
2024/02/05 07:59:44;;;;;;;3.63;3.20;;;15.30;70.90;;;;;;4999450;28;20104;-77
2024/02/05 08:02:10;;;;;;;3.55;3.25;;;15.20;70.90;;;;;;4969183;28;20054;-78
2024/02/05 08:04:36;;;;;;;3.30;3.05;;;15.20;70.90;;;;;;4999785;28;20041;-78
2024/02/05 08:07:04;;;;;;;3.08;2.88;;;15.30;71.00;;;;;;5014990;28;20050;-80
2024/02/05 08:09:29;;;;;;;3.63;3.30;;;15.30;71.00;;;;;;4995973;28;20579;-80
2024/02/05 08:11:55;;;;;;;3.10;2.85;;;15.20;70.90;;;;;;4999798;28;20045;-80
2024/02/05 08:14:21;;;;;;;4.47;3.40;;;15.20;70.80;;;;;;5011335;28;20532;-80
2024/02/05 08:16:47;;;;;;;2.83;2.63;;;15.20;71.20;;;;;;4982134;28;20041;-80
2024/02/05 08:19:12;;;;;;;3.33;3.03;;;15.20;71.70;;;;;;5018085;28;20459;-80
2024/02/05 08:21:38;;;;;;;3.13;2.83;;;15.30;71.90;;;;;;4978705;28;20049;-80
2024/02/05 08:24:04;;;;;;;3.85;2.58;;;15.30;72.10;;;;;;5009558;28;20110;-80
2024/02/05 08:26:31;;;;;;;3.17;2.97;;;15.30;72.10;;;;;;4984542;28;20531;-80
2024/02/05 08:28:56;;;;;;;3.33;2.72;;;15.30;73.80;;;;;;5016816;28;20030;-80
2024/02/05 08:31:22;;;;;;;3.63;2.50;;;15.30;73.40;;;;;;5012348;28;20064;-80
2024/02/05 08:33:48;;;;;;;2.95;2.50;;;15.30;73.10;;;;;;5000672;28;20458;-80
2024/02/05 08:36:14;;;;;;;4.03;2.92;;;15.30;73.00;;;;;;5000861;28;20053;-79
2024/02/05 08:38:41;;;;;;;3.20;2.90;;;15.30;72.80;;;;;;4982634;28;20044;-80
2024/02/05 08:41:09;;;;;;;3.33;2.60;;;15.20;72.90;;;;;;4998371;28;20069;-80
2024/02/05 08:43:34;;;;;;;4.22;2.67;;;15.30;73.00;;;;;;4998335;28;20034;-80
2024/02/05 08:46:00;;;;;;;2.58;2.40;;;15.30;73.20;;;;;;5002959;28;20514;-79
2024/02/05 08:48:25;;;;;;;3.47;2.92;;;15.20;73.10;;;;;;5001091;28;20038;-80
2024/02/05 08:50:51;;;;;;;3.35;2.67;;;15.20;73.20;;;;;;5018918;28;20124;-80
2024/02/05 08:53:17;;;;;;;3.60;2.95;;;15.20;73.20;;;;;;5002718;28;20186;-80
2024/02/05 08:55:42;;;;;;;3.08;2.78;;;15.20;73.00;;;;;;4988594;28;20420;-79
2024/02/05 08:58:08;;;;;;;2.80;2.53;;;15.20;73.00;;;;;;5005349;28;20053;-80
2024/02/05 09:00:33;;;;;;;3.00;2.70;;;15.20;73.00;;;;;;5016986;28;20045;-80
2024/02/05 09:02:59;;;;;;;2.70;2.45;;;15.20;72.90;;;;;;5005376;28;20061;-80
2024/02/05 09:05:25;;;;;;;3.65;2.35;;;15.20;73.70;;;;;;5006092;28;20121;-80
2024/02/05 09:07:50;;;;;;;2.38;2.17;;;15.20;72.90;;;;;;5006083;28;20041;-80
2024/02/05 09:10:16;;;;;;;2.80;2.58;;;15.20;72.80;;;;;;4990284;28;20444;-80
2024/02/05 09:12:41;;;;;;;2.53;2.33;;;15.20;72.80;;;;;;5005179;28;20037;-80
2024/02/05 09:15:07;;;;;;;2.63;2.40;;;15.20;73.20;;;;;;5002366;28;20518;-80
2024/02/05 09:17:33;;;;;;;2.70;2.50;;;15.20;72.80;;;;;;5002821;28;20054;-80
2024/02/05 09:19:59;;;;;;;2.17;1.98;;;15.20;72.90;;;;;;5004796;28;20069;-80
2024/02/05 09:22:24;;;;;;;2.50;2.30;;;15.20;72.60;;;;;;5018341;28;20041;-80
2024/02/05 09:24:50;;;;;;;3.17;2.40;;;15.20;72.60;;;;;;4988599;28;20065;-80
2024/02/05 09:27:15;;;;;;;3.20;2.10;;;15.20;72.50;;;;;;5014585;28;20038;-80
2024/02/05 09:29:41;;;;;;;2.33;2.13;;;15.20;72.70;;;;;;5001444;28;20050;-79
2024/02/05 09:32:07;;;;;;;3.47;2.20;;;15.20;72.60;;;;;;5003194;28;20551;-80
2024/02/05 09:34:33;;;;;;;4.18;2.00;;;15.20;72.60;;;;;;4986054;28;20141;-80
2024/02/05 09:37:00;;;;;;;1.85;1.75;;;15.20;72.70;;;;;;5007663;28;20133;-80
2024/02/05 09:39:25;;;;;;;1.75;1.60;;;15.20;72.60;;;;;;5019028;28;20030;-80
2024/02/05 09:41:52;;;;;;;2.22;2.03;;;15.20;72.70;;;;;;5004479;28;20100;-79
2024/02/05 09:44:18;;;;;;;3.05;1.95;;;15.20;72.70;;;;;;4988488;28;20550;-80
2024/02/05 09:46:47;;;;;;;2.25;1.88;;;15.20;72.70;;;;;;4989928;28;20214;-80
2024/02/05 09:49:13;;;;;;;1.98;1.88;;;15.20;72.50;;;;;;5018839;28;20058;-80
2024/02/05 09:51:38;;;;;;;2.38;2.17;;;15.20;73.40;;;;;;5016573;28;20747;-80
2024/02/05 09:54:04;;;;;;;5.57;2.25;;;15.20;72.60;;;;;;5019273;28;20037;-80
2024/02/05 09:56:30;;;;;;;2.85;2.10;;;15.20;72.40;;;;;;4986801;28;20046;-80
2024/02/05 09:58:56;;;;;;;5.60;2.25;;;15.20;72.50;;;;;;5019533;28;20049;-80
2024/02/05 10:01:25;;;;;;;5.32;2.05;;;15.30;72.30;;;;;;5002796;28;20526;-80
2024/02/05 10:03:53;;;;;;;3.22;2.03;;;15.30;72.40;;;;;;5004422;28;20049;-81
2024/02/05 10:06:19;;;;;;;5.75;1.90;;;15.30;72.40;;;;;;5017052;28;20038;-78
2024/02/05 10:08:45;;;;;;;1.73;1.60;;;15.50;71.70;;;;;;5015226;28;20038;-79
2024/02/05 10:11:11;;;;;;;1.90;1.80;;;15.50;71.50;;;;;;5005275;28;20049;-79
2024/02/05 10:13:37;;;;;;;2.28;2.03;;;15.50;71.40;;;;;;5005058;28;20049;-80
2024/02/05 10:16:03;;;;;;;2.50;2.00;;;15.50;71.40;;;;;;5004633;28;20043;-80
2024/02/05 10:18:29;;;;;;;1.80;1.70;;;15.40;71.90;;;;;;4985193;28;20038;-80
2024/02/05 10:20:55;;;;;;;1.98;1.77;;;15.40;73.50;;;;;;5015261;28;20045;-79
2024/02/05 10:23:20;;;;;;;1.83;1.65;;;15.40;73.20;;;;;;5001429;28;20516;-80
2024/02/05 10:25:46;;;;;;;1.92;1.70;;;15.40;73.30;;;;;;5003456;28;20072;-79
2024/02/05 10:28:11;;;;;;;2.65;1.60;;;15.30;73.30;;;;;;5001863;28;20073;-79
2024/02/05 10:30:37;;;;;;;1.40;1.30;;;15.40;73.40;;;;;;5013905;28;20050;-80
2024/02/05 10:33:06;;;;;;;1.88;1.70;;;15.40;73.40;;;;;;5019009;28;20065;-79
2024/02/05 10:35:31;;;;;;;3.58;1.67;;;15.40;73.20;;;;;;4984859;28;20423;-79
2024/02/05 10:38:08;;;;;;;1.80;1.50;;;15.40;73.40;;;;;;4999695;28;20603;-80
2024/02/05 10:40:37;;;;;;;3.10;1.35;;;15.40;73.20;;;;;;4983482;28;20053;-80
2024/02/05 10:43:08;;;;;;;1.33;1.23;;;15.30;73.20;;;;;;5003689;28;20463;-80
2024/02/05 10:45:34;;;;;;;1.90;1.40;;;15.40;73.10;;;;;;5001552;28;20097;-80
2024/02/05 10:48:00;;;;;;;1.77;1.20;;;15.40;73.90;;;;;;5002642;28;20054;-80
2024/02/05 10:50:26;;;;;;;2.30;1.40;;;15.40;73.40;;;;;;4985459;28;20047;-80
2024/02/05 10:52:53;;;;;;;1.40;1.30;;;15.40;73.00;;;;;;5016446;28;20096;-80
2024/02/05 10:55:18;;;;;;;1.55;1.40;;;15.40;73.00;;;;;;4989519;28;20415;-80
2024/02/05 10:57:44;;;;;;;1.70;1.60;;;15.40;73.00;;;;;;5015114;28;20045;-80
2024/02/05 11:00:11;;;;;;;1.67;1.55;;;15.40;72.90;;;;;;4995382;28;20508;-79
2024/02/05 11:02:50;;;;;;;1.77;1.20;;;15.40;72.90;;;;;;4984734;28;20042;-80
2024/02/05 11:05:16;;;;;;;1.55;1.45;;;15.40;72.90;;;;;;4970053;28;20050;-79
2024/02/05 11:07:48;;;;;;;1.63;1.42;;;15.40;73.10;;;;;;5002471;28;20054;-80
2024/02/05 11:10:15;;;;;;;2.55;1.38;;;15.40;72.90;;;;;;5000565;28;20050;-80
2024/02/05 11:12:40;;;;;;;1.83;1.58;;;15.40;72.90;;;;;;4971167;28;20045;-79
2024/02/05 11:15:07;;;;;;;4.20;1.30;;;15.50;72.60;;;;;;4983942;28;20097;-79
2024/02/05 11:17:33;;;;;;;3.53;1.40;;;15.40;72.50;;;;;;5017424;28;20126;-79
2024/02/05 11:19:59;;;;;;;3.35;1.25;;;15.40;72.70;;;;;;5017662;28;20046;-79
2024/02/05 11:22:24;;;;;;;2.17;1.23;;;15.40;72.70;;;;;;5005044;28;20044;-79
2024/02/05 11:24:50;;;;;;;1.50;1.40;;;15.40;72.60;;;;;;5002008;28;20050;-79
2024/02/05 11:27:16;;;;;;;1.13;1.02;;;15.40;72.60;;;;;;5016368;28;20112;-79
2024/02/05 11:29:42;;;;;;;2.30;1.17;;;15.40;72.70;;;;;;4999677;28;20057;-79
2024/02/05 11:32:07;;;;;;;4.20;1.20;;;15.40;72.70;;;;;;5016677;28;20045;-79
2024/02/05 11:34:37;;;;;;;1.33;1.20;;;15.40;72.70;;;;;;5019464;28;20409;-80
2024/02/05 11:37:10;;;;;;;1.20;1.10;;;15.40;72.60;;;;;;5016141;28;20393;-79
2024/02/05 11:39:37;;;;;;;1.10;1.00;;;15.40;72.70;;;;;;5003623;28;20049;-79
2024/02/05 11:42:07;;;;;;;1.40;1.30;;;15.40;73.50;;;;;;5013460;28;20331;-79
2024/02/05 11:44:33;;;;;;;1.00;1.00;;;15.40;72.70;;;;;;5019032;28;20046;-79
2024/02/05 11:46:59;;;;;;;0.90;0.90;;;15.40;72.60;;;;;;5002750;28;20053;-79
2024/02/05 11:49:34;;;;;;;1.15;1.13;;;15.40;72.80;;;;;;5001615;28;20116;-79
2024/02/05 11:52:00;;;;;;;1.30;1.20;;;15.40;72.70;;;;;;4997297;28;20046;-79
2024/02/05 11:54:36;;;;;;;3.50;1.15;;;15.40;72.60;;;;;;5016395;28;20050;-79
2024/02/05 11:57:02;;;;;;;1.25;1.15;;;15.40;72.50;;;;;;5010581;28;20120;-79
2024/02/05 11:59:28;;;;;;;2.08;1.10;;;15.40;72.50;;;;;;4990869;28;20041;-79
2024/02/05 12:01:53;;;;;;;1.60;1.27;;;15.40;72.30;;;;;;5016380;28;20504;-79
2024/02/05 12:04:19;;;;;;;2.45;1.10;;;15.40;72.50;;;;;;4997383;28;20034;-79
2024/02/05 12:06:46;;;;;;;0.80;0.80;;;15.40;72.30;;;;;;5014438;28;20101;-79
2024/02/05 12:09:12;;;;;;;0.93;0.93;;;15.40;72.40;;;;;;5016690;28;20045;-79
2024/02/05 12:11:41;;;;;;;0.90;0.80;;;15.40;72.30;;;;;;5007308;28;20069;-79
2024/02/05 12:14:12;;;;;;;1.30;0.95;;;15.30;72.30;;;;;;5018496;28;20054;-79
2024/02/05 12:16:41;;;;;;;1.38;0.93;;;15.40;72.40;;;;;;5006509;28;20407;-79
2024/02/05 12:19:08;;;;;;;1.00;0.75;;;15.40;72.60;;;;;;5005705;28;20069;-79
2024/02/05 12:21:34;;;;;;;0.82;0.80;;;15.40;72.40;;;;;;5003807;28;20046;-79
2024/02/05 12:23:59;;;;;;;0.93;0.85;;;15.40;72.50;;;;;;5005545;28;20050;-79
2024/02/05 12:26:26;;;;;;;0.98;0.70;;;15.40;72.30;;;;;;5006347;28;20113;-79
2024/02/05 12:28:52;;;;;;;0.70;0.70;;;15.40;72.30;;;;;;5004573;28;20133;-79
2024/02/05 12:31:21;;;;;;;0.90;0.75;;;15.40;72.20;;;;;;5002928;28;20044;-79
2024/02/05 12:34:05;;;;;;;2.08;1.00;;;15.40;72.20;;;;;;5003201;28;20133;-79
2024/02/05 12:36:36;;;;;;;2.20;1.10;;;15.40;72.30;;;;;;5018361;28;20052;-79